• Join FlightAware (Why Join?)
  • Login
  • US Flag 
Trick or treat! (Boo!!) 
05:16AM EDT


 

Airport Tracker/Info


-or-


 

Live Flight TrackerFlight Track Log ✈ GTX256 ✈ 26-Jun-2014 ✈ KSAT - KADS

Flight Track Log - Related Links

Times and Time Zones

All times are in EDT time to prevent confusion due to time zone crossing. See the GTX256 flight status page for this flight to view local times or setup timezone preferences in your user account.

Time Position Orientation Groundspeed Altitude Reporting Facility
EDT Latitude Longitude Course Direction KTS MPH feet Rate Location/Type
08:41PM 29.5369 -98.4575 350° North 96 110 1,200  Level Houston Center
08:42PM 29.5733 -98.4650 350° North 115 132 2,200 720 Climbing Houston Center
08:43PM 29.5892 -98.4711 341° North 111 128 2,600 780 Climbing Houston Center
08:43PM 29.6017 -98.4783 333° Northwest 116 133 3,000 720 Climbing Houston Center
08:44PM 29.6192 -98.4839 345° North 112 129 3,400 720 Climbing Houston Center
08:44PM 29.6289 -98.4775 30° Northeast 116 133 3,700 840 Climbing Houston Center
08:45PM 29.6494 -98.4642 29° Northeast 114 131 4,300 720 Climbing Houston Center
08:45PM 29.6528 -98.4628 20° North 111 128 4,400 600 Climbing Houston Center
08:46PM 29.6825 -98.4422 31° Northeast 120 138 5,100 720 Climbing Houston Center
08:47PM 29.7142 -98.4217 29° Northeast 125 144 5,900 660 Climbing Houston Center
08:48PM 29.7392 -98.4058 29° Northeast 121 139 6,400 660 Climbing Houston Center
08:48PM 29.7478 -98.4006 28° Northeast 122 140 6,700 660 Climbing Houston Center
08:49PM 29.7739 -98.3856 27° Northeast 123 142 7,200 540 Climbing Houston Center
08:50PM 29.7997 -98.3678 31° Northeast 121 139 7,700 420 Climbing Houston Center
08:50PM 29.8075 -98.3644 20° North 127 146 7,700  Level Houston Center
08:51PM 29.8611 -98.3292 30° Northeast 169 194 7,700  Level Houston Center
08:52PM 29.8800 -98.3158 31° Northeast 163 188 7,700  Level Houston Center
08:53PM 29.9303 -98.2844 28° Northeast 170 196 7,700  Level Houston Center
08:54PM 29.9622 -98.2567 37° Northeast 167 192 7,700  Level Houston Center
08:55PM 30.0067 -98.2372 21° North 168 193 7,700  Level Houston Center
08:56PM 30.0556 -98.2253 12° North 167 192 7,700  Level Houston Center
08:57PM 30.0992 -98.2058 21° North 167 192 7,700  Level Houston Center
08:58PM 30.1400 -98.1803 28° Northeast 167 192 7,700  Level Houston Center
08:59PM 30.1811 -98.1481 34° Northeast 167 192 7,700  Level Houston Center
09:01PM 30.2619 -98.0878 21° North 167 192 7,700  Level Houston Center
09:02PM 30.3017 -98.0592 32° Northeast 167 192 7,700  Level Houston Center
09:03PM 30.3353 -98.0350 32° Northeast 167 192 7,700  Level Houston Center
09:05PM 30.4217 -97.9706 33° Northeast 168 193 7,700  Level Houston Center
09:06PM 30.4625 -97.9417 31° Northeast 168 193 7,700  Level Houston Center
09:07PM 30.5039 -97.9147 29° Northeast 168 193 7,700  Level Houston Center
09:08PM 30.5442 -97.8875 30° Northeast 168 193 7,700  Level Houston Center
09:09PM 30.5844 -97.8611 29° Northeast 168 193 7,700  Level Houston Center
09:10PM 30.6250 -97.8322 32° Northeast 168 193 7,700  Level Houston Center
09:12PM 30.7147 -97.7703 31° Northeast 169 194 7,700  Level Houston Center
09:13PM 30.7553 -97.7425 30° Northeast 169 194 7,700  Level Houston Center
09:14PM 30.7956 -97.7122 33° Northeast 169 194 7,700  Level Houston Center
09:15PM 30.8353 -97.6833 32° Northeast 169 194 7,700  Level Houston Center
09:17PM 30.8753 -97.6539 32° Northeast 169 194 7,700  Level Houston Center
09:17PM 30.9056 -97.6297 34° Northeast 169 194 7,700  Level Fort Worth Center
09:18PM 30.9228 -97.6189 28° Northeast 169 194 7,700  Level Fort Worth Center
09:18PM 30.9483 -97.6006 32° Northeast 173 199 7,700  Level Fort Worth Center
09:19PM 30.9639 -97.5908 28° Northeast 169 194 7,700  Level Fort Worth Center
09:19PM 30.9931 -97.5711 30° Northeast 172 198 7,700  Level Fort Worth Center
09:20PM 31.0053 -97.5619 33° Northeast 169 194 7,700  Level Fort Worth Center
09:20PM 31.0319 -97.5425 32° Northeast 171 197 7,700  Level Fort Worth Center
09:21PM 31.0458 -97.5311 35° Northeast 170 196 7,700  Level Fort Worth Center
09:21PM 31.0744 -97.5111 31° Northeast 174 200 7,700 -300 Level Fort Worth Center
09:22PM 31.0892 -97.5050 20° North 170 196 7,400 -1,020 Descending Fort Worth Center
09:22PM 31.1228 -97.4931 17° North 199 229 6,700 -1,020 Descending Fort Worth Center
09:23PM 31.1422 -97.4853 19° North 185 213 6,400 -1,020 Descending Fort Worth Center
09:23PM 31.1792 -97.4714 18° North 203 234 5,700 -1,260 Descending Fort Worth Center
09:24PM 31.2067 -97.4603 19° North 197 227 5,100 -1,140 Descending Fort Worth Center
09:24PM 31.2356 -97.4497 17° North 204 235 4,600 -960 Descending Fort Worth Center
09:25PM 31.2614 -97.4397 18° North 200 230 4,100 -720 Descending Fort Worth Center
09:26PM 31.3131 -97.4197 18° North 200 230 3,500 -300 Descending Fort Worth Center
09:27PM 31.3608 -97.4036 16° North 184 212 3,500  Level Fort Worth Center
09:28PM 31.4144 -97.3903 12° North 190 219 3,500  Level Fort Worth Center
09:29PM 31.4633 -97.3739 16° North 187 215 3,500  Level Fort Worth Center
09:30PM 31.5217 -97.3503 19° North 187 215 3,500  Level Fort Worth Center
09:31PM 31.5708 -97.3333 16° North 187 215 3,500  Level Fort Worth Center
09:31PM 31.5767 -97.3339 355° North 186 214 3,500  Level Fort Worth Center
09:32PM 31.6203 -97.3156 20° North 187 215 3,500  Level Fort Worth Center
09:33PM 31.6692 -97.2981 17° North 186 214 3,500  Level Fort Worth Center
09:34PM 31.7186 -97.2803 17° North 187 215 3,500  Level Fort Worth Center
09:35PM 31.7678 -97.2628 17° North 186 214 3,500  Level Fort Worth Center
09:36PM 31.7944 -97.2436 31° Northeast 173 199 3,500  Level Fort Worth Center
09:36PM 31.8161 -97.2236 38° Northeast 176 203 3,500  Level Fort Worth Center
09:37PM 31.8614 -97.1953 28° Northeast 180 207 3,500  Level Fort Worth Center
09:38PM 31.9114 -97.1769 17° North 185 213 3,500  Level Fort Worth Center
09:39PM 31.9664 -97.1597 15° North 180 207 3,500  Level Fort Worth Center
09:40PM 32.0167 -97.1400 18° North 187 215 3,500  Level Fort Worth Center
09:41PM 32.0658 -97.1231 16° North 186 214 3,500  Level Fort Worth Center
09:42PM 32.1161 -97.1044 17° North 187 215 3,500  Level Fort Worth Center
09:43PM 32.1672 -97.0881 15° North 188 216 3,500  Level Fort Worth Center
09:45PM 32.2178 -97.0711 16° North 188 216 3,500 -60 Level Fort Worth Center
09:46PM 32.2806 -97.0514 15° North 189 217 3,400 -60 Descending Fort Worth Center
09:47PM 32.3325 -97.0339 16° North 194 223 3,400  Level Fort Worth Center
09:48PM 32.3878 -97.0150 16° North 193 222 3,400  Level Fort Worth Center
09:49PM 32.4394 -96.9981 15° North 193 222 3,400  Level Fort Worth Center
09:50PM 32.4903 -96.9806 16° North 189 217 3,500  Climbing Fort Worth Center
09:51PM 32.5461 -96.9658 13° North 194 223 3,500  Level Fort Worth Center
09:52PM 32.5975 -96.9497 15° North 193 222 3,500  Level Fort Worth Center
09:53PM 32.6533 -96.9325 15° North 193 222 3,500 -300 Level Fort Worth Center
09:54PM 32.7067 -96.9125 18° North 196 226 3,000 -540 Descending Fort Worth Center
09:55PM 32.7653 -96.8919 16° North 205 236 2,500 -300 Descending Fort Worth Center
09:56PM 32.8153 -96.8797 12° North 189 217 2,500  Level Fort Worth Center
09:57PM 32.8644 -96.8658 13° North 182 209 2,500 -120 Level Fort Worth Center
09:58PM 32.9111 -96.8525 13° North 176 203 2,300 -420 Descending Fort Worth Center
09:59PM 32.9633 -96.8575 355° North 177 204 1,700 -540 Descending Fort Worth Center
10:00PM 32.9903 -96.8503 13° North 125 144 1,300 -360 Descending Fort Worth Center
10:01PM 32.9758 -96.8367 142° Southeast 103 119 1,000 -300 Descending Fort Worth Center
10:03PM 32.9667 -96.8333 16° North  Level FlightAware Approximate
10:10PM 32.9686 -96.8364 16° North  Level Estimated